sensor_id;sensor_type;location;lat;lon;timestamp;pressure;altitude;pressure_sealevel;temperature;humidity
37238;BME280;23129;49.662;8.448;2024-03-02T00:01:57;99537.09;;;4.98;100.00
37238;BME280;23129;49.662;8.448;2024-03-02T00:04:25;99536.28;;;4.96;100.00
37238;BME280;23129;49.662;8.448;2024-03-02T00:06:56;99532.03;;;4.94;100.00
37238;BME280;23129;49.662;8.448;2024-03-02T00:09:25;99533.78;;;4.92;100.00
37238;BME280;23129;49.662;8.448;2024-03-02T00:11:53;99522.59;;;4.88;100.00
37238;BME280;23129;49.662;8.448;2024-03-02T00:14:22;99526.06;;;4.87;100.00
37238;BME280;23129;49.662;8.448;2024-03-02T00:16:51;99514.88;;;4.85;100.00
37238;BME280;23129;49.662;8.448;2024-03-02T00:19:20;99513.84;;;4.92;100.00
37238;BME280;23129;49.662;8.448;2024-03-02T00:21:49;99512.03;;;4.97;100.00
37238;BME280;23129;49.662;8.448;2024-03-02T00:24:32;99511.19;;;4.95;100.00
37238;BME280;23129;49.662;8.448;2024-03-02T00:27:04;99512.94;;;4.93;100.00
37238;BME280;23129;49.662;8.448;2024-03-02T00:29:35;99516.56;;;4.88;100.00
37238;BME280;23129;49.662;8.448;2024-03-02T00:32:04;99527.03;;;4.83;100.00
37238;BME280;23129;49.662;8.448;2024-03-02T00:34:36;99522.78;;;4.79;100.00
37238;BME280;23129;49.662;8.448;2024-03-02T00:37:05;99531.50;;;4.75;100.00
37238;BME280;23129;49.662;8.448;2024-03-02T00:39:36;99533.34;;;4.70;100.00
37238;BME280;23129;49.662;8.448;2024-03-02T00:42:06;99536.00;;;4.65;100.00
37238;BME280;23129;49.662;8.448;2024-03-02T00:44:35;99531.72;;;4.63;100.00
37238;BME280;23129;49.662;8.448;2024-03-02T00:47:04;99530.94;;;4.59;100.00
37238;BME280;23129;49.662;8.448;2024-03-02T00:49:33;99537.03;;;4.56;100.00
37238;BME280;23129;49.662;8.448;2024-03-02T00:52:06;99540.53;;;4.55;100.00
37238;BME280;23129;49.662;8.448;2024-03-02T00:54:36;99530.19;;;4.52;100.00
37238;BME280;23129;49.662;8.448;2024-03-02T00:57:05;99536.25;;;4.51;100.00
37238;BME280;23129;49.662;8.448;2024-03-02T00:59:33;99540.63;;;4.49;100.00
37238;BME280;23129;49.662;8.448;2024-03-02T01:02:02;99532.88;;;4.48;100.00
37238;BME280;23129;49.662;8.448;2024-03-02T01:04:31;99538.94;;;4.47;100.00
37238;BME280;23129;49.662;8.448;2024-03-02T01:07:00;99543.28;;;4.46;100.00
37238;BME280;23129;49.662;8.448;2024-03-02T01:09:29;99546.78;;;4.44;100.00
37238;BME280;23129;49.662;8.448;2024-03-02T01:11:58;99542.47;;;4.43;100.00
37238;BME280;23129;49.662;8.448;2024-03-02T01:14:27;99550.25;;;4.43;100.00
37238;BME280;23129;49.662;8.448;2024-03-02T01:16:56;99540.75;;;4.42;100.00
37238;BME280;23129;49.662;8.448;2024-03-02T01:19:47;99543.44;;;4.37;100.00
37238;BME280;23129;49.662;8.448;2024-03-02T01:22:47;99536.53;;;4.36;100.00
37238;BME280;23129;49.662;8.448;2024-03-02T01:25:16;99533.13;;;4.34;100.00
37238;BME280;23129;49.662;8.448;2024-03-02T01:27:46;99537.41;;;4.35;100.00
37238;BME280;23129;49.662;8.448;2024-03-02T01:30:17;99527.94;;;4.32;100.00
37238;BME280;23129;49.662;8.448;2024-03-02T01:32:46;99528.84;;;4.30;100.00
37238;BME280;23129;49.662;8.448;2024-03-02T01:35:15;99515.91;;;4.28;100.00
37238;BME280;23129;49.662;8.448;2024-03-02T01:37:43;99525.38;;;4.31;100.00
37238;BME280;23129;49.662;8.448;2024-03-02T01:40:12;99519.31;;;4.30;100.00
37238;BME280;23129;49.662;8.448;2024-03-02T01:42:41;99518.50;;;4.28;100.00
37238;BME280;23129;49.662;8.448;2024-03-02T01:45:12;99516.81;;;4.26;100.00
37238;BME280;23129;49.662;8.448;2024-03-02T01:47:41;99517.72;;;4.23;100.00
37238;BME280;23129;49.662;8.448;2024-03-02T01:50:11;99510.91;;;4.18;100.00
37238;BME280;23129;49.662;8.448;2024-03-02T01:52:40;99500.63;;;4.11;100.00
37238;BME280;23129;49.662;8.448;2024-03-02T01:55:09;99495.47;;;4.08;100.00
37238;BME280;23129;49.662;8.448;2024-03-02T01:57:38;99501.63;;;4.04;100.00
37238;BME280;23129;49.662;8.448;2024-03-02T02:00:08;99500.78;;;4.01;100.00
37238;BME280;23129;49.662;8.448;2024-03-02T02:02:41;99504.38;;;3.95;100.00
37238;BME280;23129;49.662;8.448;2024-03-02T02:05:10;99503.56;;;3.90;100.00
37238;BME280;23129;49.662;8.448;2024-03-02T02:07:38;99502.78;;;3.85;100.00
37238;BME280;23129;49.662;8.448;2024-03-02T02:10:07;99502.88;;;3.79;100.00
37238;BME280;23129;49.662;8.448;2024-03-02T02:12:36;99489.97;;;3.76;100.00
37238;BME280;23129;49.662;8.448;2024-03-02T02:15:24;99491.75;;;3.71;100.00
37238;BME280;23129;49.662;8.448;2024-03-02T02:17:54;99498.72;;;3.69;100.00
37238;BME280;23129;49.662;8.448;2024-03-02T02:20:24;99502.22;;;3.64;100.00
37238;BME280;23129;49.662;8.448;2024-03-02T02:22:56;99495.38;;;3.60;100.00
37238;BME280;23129;49.662;8.448;2024-03-02T02:25:25;99491.97;;;3.57;100.00
37238;BME280;23129;49.662;8.448;2024-03-02T02:27:53;99498.06;;;3.54;100.00
37238;BME280;23129;49.662;8.448;2024-03-02T02:30:24;99493.81;;;3.50;100.00
37238;BME280;23129;49.662;8.448;2024-03-02T02:32:54;99486.91;;;3.49;100.00
37238;BME280;23129;49.662;8.448;2024-03-02T02:35:23;99486.09;;;3.47;100.00
37238;BME280;23129;49.662;8.448;2024-03-02T02:37:55;99497.31;;;3.46;100.00
37238;BME280;23129;49.662;8.448;2024-03-02T02:40:26;99493.91;;;3.44;100.00
37238;BME280;23129;49.662;8.448;2024-03-02T02:42:56;99484.47;;;3.38;100.00
37238;BME280;23129;49.662;8.448;2024-03-02T02:45:28;99480.19;;;3.36;100.00
37238;BME280;23129;49.662;8.448;2024-03-02T02:47:56;99476.75;;;3.34;100.00
37238;BME280;23129;49.662;8.448;2024-03-02T02:50:25;99487.13;;;3.34;100.00
37238;BME280;23129;49.662;8.448;2024-03-02T02:52:55;99476.78;;;3.31;100.00
37238;BME280;23129;49.662;8.448;2024-03-02T02:55:24;99481.13;;;3.29;100.00
37238;BME280;23129;49.662;8.448;2024-03-02T02:57:53;99482.03;;;3.28;100.00
37238;BME280;23129;49.662;8.448;2024-03-02T03:00:22;99481.19;;;3.26;100.00
37238;BME280;23129;49.662;8.448;2024-03-02T03:02:50;99484.69;;;3.23;100.00
37238;BME280;23129;49.662;8.448;2024-03-02T03:05:19;99479.53;;;3.22;100.00
37238;BME280;23129;49.662;8.448;2024-03-02T03:07:48;99477.81;;;3.20;100.00
37238;BME280;23129;49.662;8.448;2024-03-02T03:10:19;99473.50;;;3.19;100.00
37238;BME280;23129;49.662;8.448;2024-03-02T03:12:50;99472.69;;;3.17;100.00
37238;BME280;23129;49.662;8.448;2024-03-02T03:15:19;99468.34;;;3.16;100.00
37238;BME280;23129;49.662;8.448;2024-03-02T03:17:48;99470.09;;;3.16;100.00
37238;BME280;23129;49.662;8.448;2024-03-02T03:20:18;99462.38;;;3.13;100.00
37238;BME280;23129;49.662;8.448;2024-03-02T03:22:49;99463.22;;;3.13;100.00
37238;BME280;23129;49.662;8.448;2024-03-02T03:25:19;99465.00;;;3.11;100.00
37238;BME280;23129;49.662;8.448;2024-03-02T03:27:47;99473.63;;;3.10;100.00
37238;BME280;23129;49.662;8.448;2024-03-02T03:30:16;99471.91;;;3.09;100.00
37238;BME280;23129;49.662;8.448;2024-03-02T03:32:45;99468.44;;;3.10;100.00
37238;BME280;23129;49.662;8.448;2024-03-02T03:35:15;99468.44;;;3.10;100.00
37238;BME280;23129;49.662;8.448;2024-03-02T03:37:44;99463.28;;;3.09;100.00
37238;BME280;23129;49.662;8.448;2024-03-02T03:40:13;99458.97;;;3.08;100.00
37238;BME280;23129;49.662;8.448;2024-03-02T03:42:44;99459.84;;;3.08;100.00
37238;BME280;23129;49.662;8.448;2024-03-02T03:45:12;99458.13;;;3.07;100.00
37238;BME280;23129;49.662;8.448;2024-03-02T03:47:41;99458.13;;;3.07;100.00
37238;BME280;23129;49.662;8.448;2024-03-02T03:50:11;99454.72;;;3.05;100.00
37238;BME280;23129;49.662;8.448;2024-03-02T03:52:39;99456.47;;;3.03;100.00
37238;BME280;23129;49.662;8.448;2024-03-02T03:55:09;99458.19;;;3.01;100.00
37238;BME280;23129;49.662;8.448;2024-03-02T03:57:37;99456.50;;;3.00;100.00
37238;BME280;23129;49.662;8.448;2024-03-02T04:00:09;99468.59;;;2.98;100.00
37238;BME280;23129;49.662;8.448;2024-03-02T04:02:39;99470.34;;;2.96;100.00
37238;BME280;23129;49.662;8.448;2024-03-02T04:05:08;99472.13;;;2.94;100.00
37238;BME280;23129;49.662;8.448;2024-03-02T04:07:39;99463.50;;;2.92;100.00
37238;BME280;23129;49.662;8.448;2024-03-02T04:10:09;99454.03;;;2.91;100.00
37238;BME280;23129;49.662;8.448;2024-03-02T04:12:39;99454.88;;;2.90;100.00
37238;BME280;23129;49.662;8.448;2024-03-02T04:15:10;99461.00;;;2.87;100.00
37238;BME280;23129;49.662;8.448;2024-03-02T04:17:38;99468.75;;;2.86;100.00
37238;BME280;23129;49.662;8.448;2024-03-02T04:20:08;99467.06;;;2.85;100.00
37238;BME280;23129;49.662;8.448;2024-03-02T04:22:36;99477.41;;;2.85;100.00
37238;BME280;23129;49.662;8.448;2024-03-02T04:25:05;99475.69;;;2.84;100.00
37238;BME280;23129;49.662;8.448;2024-03-02T04:27:35;99469.66;;;2.83;100.00
37238;BME280;23129;49.662;8.448;2024-03-02T04:30:05;99472.28;;;2.82;100.00
37238;BME280;23129;49.662;8.448;2024-03-02T04:32:35;99471.44;;;2.80;100.00
37238;BME280;23129;49.662;8.448;2024-03-02T04:35:05;99473.16;;;2.78;100.00
37238;BME280;23129;49.662;8.448;2024-03-02T04:37:35;99472.34;;;2.76;100.00
37238;BME280;23129;49.662;8.448;2024-03-02T04:40:05;99474.94;;;2.74;100.00
37238;BME280;23129;49.662;8.448;2024-03-02T04:42:35;99469.81;;;2.71;100.00
37238;BME280;23129;49.662;8.448;2024-03-02T04:45:05;99477.59;;;2.69;100.00
37238;BME280;23129;49.662;8.448;2024-03-02T04:47:35;99472.41;;;2.69;100.00
37238;BME280;23129;49.662;8.448;2024-03-02T04:50:05;99474.13;;;2.69;100.00
37238;BME280;23129;49.662;8.448;2024-03-02T04:52:35;99480.16;;;2.71;100.00
37238;BME280;23129;49.662;8.448;2024-03-02T04:55:04;99496.53;;;2.71;100.00
37238;BME280;23129;49.662;8.448;2024-03-02T04:57:51;99493.13;;;2.69;100.00
37238;BME280;23129;49.662;8.448;2024-03-02T05:00:22;99492.25;;;2.69;100.00
37238;BME280;23129;49.662;8.448;2024-03-02T05:02:52;99494.00;;;2.67;100.00
37238;BME280;23129;49.662;8.448;2024-03-02T05:05:21;99494.03;;;2.65;100.00
37238;BME280;23129;49.662;8.448;2024-03-02T05:07:50;99501.78;;;2.65;100.00
37238;BME280;23129;49.662;8.448;2024-03-02T05:10:18;99501.81;;;2.62;100.00
37238;BME280;23129;49.662;8.448;2024-03-02T05:12:47;99495.78;;;2.62;100.00
37238;BME280;23129;49.662;8.448;2024-03-02T05:15:24;99494.94;;;2.61;100.00
37238;BME280;23129;49.662;8.448;2024-03-02T05:17:55;99509.59;;;2.62;100.00
37238;BME280;23129;49.662;8.448;2024-03-02T05:20:25;99500.13;;;2.61;100.00
37238;BME280;23129;49.662;8.448;2024-03-02T05:22:54;99515.66;;;2.61;100.00
37238;BME280;23129;49.662;8.448;2024-03-02T05:25:22;99509.59;;;2.62;100.00
37238;BME280;23129;49.662;8.448;2024-03-02T05:27:51;99507.00;;;2.62;100.00
37238;BME280;23129;49.662;8.448;2024-03-02T05:30:20;99504.38;;;2.65;100.00
37238;BME280;23129;49.662;8.448;2024-03-02T05:32:49;99505.22;;;2.67;100.00
37238;BME280;23129;49.662;8.448;2024-03-02T05:35:19;99515.53;;;2.70;100.00
37238;BME280;23129;49.662;8.448;2024-03-02T05:37:47;99508.63;;;2.72;100.00
37238;BME280;23129;49.662;8.448;2024-03-02T05:40:17;99506.84;;;2.74;100.00
37238;BME280;23129;49.662;8.448;2024-03-02T05:42:48;99507.63;;;2.81;100.00
37238;BME280;23129;49.662;8.448;2024-03-02T05:45:17;99501.53;;;2.87;100.00
37238;BME280;23129;49.662;8.448;2024-03-02T05:47:46;99515.28;;;2.92;100.00
37238;BME280;23129;49.662;8.448;2024-03-02T05:50:15;99508.34;;;2.97;100.00
37238;BME280;23129;49.662;8.448;2024-03-02T05:52:45;99509.97;;;3.04;100.00
37238;BME280;23129;49.662;8.448;2024-03-02T05:55:14;99513.38;;;3.09;100.00
37238;BME280;23129;49.662;8.448;2024-03-02T05:57:43;99513.28;;;3.15;100.00
37238;BME280;23129;49.662;8.448;2024-03-02T06:00:26;99515.81;;;3.20;100.00
37238;BME280;23129;49.662;8.448;2024-03-02T06:02:55;99514.00;;;3.25;100.00
37238;BME280;23129;49.662;8.448;2024-03-02T06:05:24;99518.25;;;3.31;100.00
37238;BME280;23129;49.662;8.448;2024-03-02T06:07:54;99523.34;;;3.37;100.00
37238;BME280;23129;49.662;8.448;2024-03-02T06:10:22;99531.06;;;3.43;100.00
37238;BME280;23129;49.662;8.448;2024-03-02T06:12:51;99525.81;;;3.48;100.00
37238;BME280;23129;49.662;8.448;2024-03-02T06:15:20;99530.91;;;3.54;100.00
37238;BME280;23129;49.662;8.448;2024-03-02T06:17:48;99526.53;;;3.57;100.00
37238;BME280;23129;49.662;8.448;2024-03-02T06:20:17;99524.69;;;3.64;100.00
37238;BME280;23129;49.662;8.448;2024-03-02T06:22:46;99528.09;;;3.67;100.00
37238;BME280;23129;49.662;8.448;2024-03-02T06:25:16;99521.13;;;3.73;100.00
37238;BME280;23129;49.662;8.448;2024-03-02T06:27:44;99525.41;;;3.75;100.00
37238;BME280;23129;49.662;8.448;2024-03-02T06:30:13;99529.69;;;3.78;100.00
37238;BME280;23129;49.662;8.448;2024-03-02T06:32:42;99532.25;;;3.79;100.00
37238;BME280;23129;49.662;8.448;2024-03-02T06:35:11;99535.69;;;3.80;100.00
37238;BME280;23129;49.662;8.448;2024-03-02T06:37:40;99541.78;;;3.79;100.00
37238;BME280;23129;49.662;8.448;2024-03-02T06:40:09;99535.75;;;3.78;100.00
37238;BME280;23129;49.662;8.448;2024-03-02T06:42:39;99543.47;;;3.80;100.00
37238;BME280;23129;49.662;8.448;2024-03-02T06:45:08;99534.84;;;3.79;100.00
37238;BME280;23129;49.662;8.448;2024-03-02T06:47:36;99534.00;;;3.80;100.00
37238;BME280;23129;49.662;8.448;2024-03-02T06:50:05;99541.72;;;3.82;100.00
37238;BME280;23129;49.662;8.448;2024-03-02T06:52:35;99539.09;;;3.85;100.00
37238;BME280;23129;49.662;8.448;2024-03-02T06:55:04;99548.56;;;3.89;100.00
37238;BME280;23129;49.662;8.448;2024-03-02T06:57:33;99543.31;;;3.92;100.00
37238;BME280;23129;49.662;8.448;2024-03-02T07:00:03;99536.31;;;3.97;100.00
37238;BME280;23129;49.662;8.448;2024-03-02T07:02:32;99542.28;;;4.04;100.00
37238;BME280;23129;49.662;8.448;2024-03-02T07:05:02;99554.25;;;4.11;100.00
37238;BME280;23129;49.662;8.448;2024-03-02T07:07:31;99547.22;;;4.19;100.00
37238;BME280;23129;49.662;8.448;2024-03-02T07:09:59;99551.44;;;4.25;100.00
37238;BME280;23129;49.662;8.448;2024-03-02T07:12:28;99548.72;;;4.32;100.00
37238;BME280;23129;49.662;8.448;2024-03-02T07:14:57;99535.63;;;4.40;100.00
37238;BME280;23129;49.662;8.448;2024-03-02T07:17:47;99540.59;;;4.52;100.00
37238;BME280;23129;49.662;8.448;2024-03-02T07:20:16;99549.00;;;4.67;100.00
37238;BME280;23129;49.662;8.448;2024-03-02T07:22:45;99543.38;;;4.88;100.00
37238;BME280;23129;49.662;8.448;2024-03-02T07:25:13;99548.63;;;5.29;100.00
37238;BME280;23129;49.662;8.448;2024-03-02T07:27:45;99547.56;;;5.78;100.00
37238;BME280;23129;49.662;8.448;2024-03-02T07:30:14;99556.06;;;6.23;100.00
37238;BME280;23129;49.662;8.448;2024-03-02T07:32:44;99555.78;;;6.68;100.00
37238;BME280;23129;49.662;8.448;2024-03-02T07:35:15;99549.97;;;6.91;100.00
37238;BME280;23129;49.662;8.448;2024-03-02T07:37:44;99558.31;;;7.04;100.00
37238;BME280;23129;49.662;8.448;2024-03-02T07:40:13;99557.13;;;7.14;100.00
37238;BME280;23129;49.662;8.448;2024-03-02T07:42:42;99564.78;;;7.20;100.00
37238;BME280;23129;49.662;8.448;2024-03-02T07:45:11;99568.16;;;7.24;100.00
37238;BME280;23129;49.662;8.448;2024-03-02T07:47:39;99569.03;;;7.24;100.00
37238;BME280;23129;49.662;8.448;2024-03-02T07:50:09;99569.13;;;7.21;100.00
37238;BME280;23129;49.662;8.448;2024-03-02T07:52:39;99564.66;;;7.25;100.00
37238;BME280;23129;49.662;8.448;2024-03-02T07:55:08;99575.00;;;7.28;100.00
37238;BME280;23129;49.662;8.448;2024-03-02T07:57:36;99577.47;;;7.32;100.00
37238;BME280;23129;49.662;8.448;2024-03-02T08:00:07;99579.91;;;7.39;100.00
37238;BME280;23129;49.662;8.448;2024-03-02T08:02:40;99578.69;;;7.50;100.00
37238;BME280;23129;49.662;8.448;2024-03-02T08:05:10;99585.31;;;7.62;100.00
37238;BME280;23129;49.662;8.448;2024-03-02T08:07:40;99579.44;;;7.84;100.00
37238;BME280;23129;49.662;8.448;2024-03-02T08:10:09;99576.69;;;8.44;100.00
37238;BME280;23129;49.662;8.448;2024-03-02T08:12:38;99570.50;;;9.22;100.00
37238;BME280;23129;49.662;8.448;2024-03-02T08:15:07;99563.41;;;9.71;100.00
37238;BME280;23129;49.662;8.448;2024-03-02T08:17:36;99571.97;;;9.98;100.00
37238;BME280;23129;49.662;8.448;2024-03-02T08:20:07;99571.47;;;10.11;100.00
37238;BME280;23129;49.662;8.448;2024-03-02T08:22:36;99573.78;;;10.18;100.00
37238;BME280;23129;49.662;8.448;2024-03-02T08:25:07;99556.75;;;10.30;100.00
37238;BME280;23129;49.662;8.448;2024-03-02T08:27:37;99555.06;;;10.49;100.00
37238;BME280;23129;49.662;8.448;2024-03-02T08:30:07;99559.47;;;10.69;100.00
37238;BME280;23129;49.662;8.448;2024-03-02T08:32:38;99562.94;;;10.90;100.00
37238;BME280;23129;49.662;8.448;2024-03-02T08:35:08;99559.91;;;11.20;100.00
37238;BME280;23129;49.662;8.448;2024-03-02T08:37:38;99558.06;;;11.60;100.00
37238;BME280;23129;49.662;8.448;2024-03-02T08:40:10;99552.97;;;11.95;100.00
37238;BME280;23129;49.662;8.448;2024-03-02T08:42:44;99559.16;;;12.30;100.00
37238;BME280;23129;49.662;8.448;2024-03-02T08:45:14;99553.81;;;12.84;100.00
37238;BME280;23129;49.662;8.448;2024-03-02T08:47:43;99556.06;;;13.24;100.00
37238;BME280;23129;49.662;8.448;2024-03-02T08:50:12;99551.63;;;13.42;100.00
37238;BME280;23129;49.662;8.448;2024-03-02T08:52:40;99547.91;;;13.46;100.00
37238;BME280;23129;49.662;8.448;2024-03-02T08:55:11;99546.72;;;13.52;100.00
37238;BME280;23129;49.662;8.448;2024-03-02T08:57:40;99549.44;;;13.66;100.00
37238;BME280;23129;49.662;8.448;2024-03-02T09:00:11;99557.00;;;13.57;100.00
37238;BME280;23129;49.662;8.448;2024-03-02T09:02:39;99552.47;;;13.43;100.00
37238;BME280;23129;49.662;8.448;2024-03-02T09:05:08;99555.00;;;13.29;100.00
37238;BME280;23129;49.662;8.448;2024-03-02T09:07:37;99557.16;;;13.20;100.00
37238;BME280;23129;49.662;8.448;2024-03-02T09:10:07;99548.97;;;13.09;100.00
37238;BME280;23129;49.662;8.448;2024-03-02T09:12:37;99549.91;;;13.08;100.00
37238;BME280;23129;49.662;8.448;2024-03-02T09:15:07;99554.41;;;13.06;100.00
37238;BME280;23129;49.662;8.448;2024-03-02T09:17:36;99545.72;;;13.04;100.00
37238;BME280;23129;49.662;8.448;2024-03-02T09:20:05;99554.56;;;13.03;100.00
37238;BME280;23129;49.662;8.448;2024-03-02T09:22:34;99547.75;;;12.99;100.00
37238;BME280;23129;49.662;8.448;2024-03-02T09:25:03;99546.38;;;12.92;100.00
37238;BME280;23129;49.662;8.448;2024-03-02T09:27:32;99548.41;;;12.87;100.00
37238;BME280;23129;49.662;8.448;2024-03-02T09:30:02;99534.47;;;12.85;100.00
37238;BME280;23129;49.662;8.448;2024-03-02T09:32:31;99532.69;;;12.85;100.00
37238;BME280;23129;49.662;8.448;2024-03-02T09:35:00;99525.63;;;12.86;100.00
37238;BME280;23129;49.662;8.448;2024-03-02T09:37:28;99531.19;;;12.97;100.00
37238;BME280;23129;49.662;8.448;2024-03-02T09:39:57;99524.19;;;13.13;100.00
37238;BME280;23129;49.662;8.448;2024-03-02T09:42:26;99523.75;;;13.38;100.00
37238;BME280;23129;49.662;8.448;2024-03-02T09:44:55;99527.69;;;13.47;100.00
37238;BME280;23129;49.662;8.448;2024-03-02T09:47:26;99520.44;;;13.66;100.00
37238;BME280;23129;49.662;8.448;2024-03-02T09:49:55;99528.00;;;14.04;100.00
37238;BME280;23129;49.662;8.448;2024-03-02T09:52:24;99515.19;;;14.58;100.00
37238;BME280;23129;49.662;8.448;2024-03-02T09:54:52;99516.59;;;15.23;100.00
37238;BME280;23129;49.662;8.448;2024-03-02T09:57:21;99517.09;;;15.57;100.00
37238;BME280;23129;49.662;8.448;2024-03-02T09:59:50;99507.75;;;15.80;100.00
37238;BME280;23129;49.662;8.448;2024-03-02T10:02:18;99509.63;;;16.05;100.00
37238;BME280;23129;49.662;8.448;2024-03-02T10:04:49;99504.53;;;16.29;100.00
37238;BME280;23129;49.662;8.448;2024-03-02T10:07:19;99502.03;;;16.53;100.00
37238;BME280;23129;49.662;8.448;2024-03-02T10:09:49;99503.19;;;16.49;100.00
37238;BME280;23129;49.662;8.448;2024-03-02T10:12:19;99496.09;;;16.49;100.00
37238;BME280;23129;49.662;8.448;2024-03-02T10:14:49;99504.16;;;16.73;100.00
37238;BME280;23129;49.662;8.448;2024-03-02T10:17:31;99507.59;;;17.01;100.00
37238;BME280;23129;49.662;8.448;2024-03-02T10:20:21;99495.47;;;17.22;91.46
37238;BME280;23129;49.662;8.448;2024-03-02T10:22:51;99501.97;;;17.18;100.00
37238;BME280;23129;49.662;8.448;2024-03-02T10:25:30;99496.16;;;16.87;100.00
37238;BME280;23129;49.662;8.448;2024-03-02T10:28:17;99498.63;;;16.51;100.00
37238;BME280;23129;49.662;8.448;2024-03-02T10:30:48;99492.25;;;16.40;100.00
37238;BME280;23129;49.662;8.448;2024-03-02T10:33:18;99492.69;;;16.34;100.00
37238;BME280;23129;49.662;8.448;2024-03-02T10:35:48;99489.41;;;16.43;100.00
37238;BME280;23129;49.662;8.448;2024-03-02T10:38:18;99501.41;;;16.62;100.00
37238;BME280;23129;49.662;8.448;2024-03-02T10:40:48;99498.91;;;16.86;100.00
37238;BME280;23129;49.662;8.448;2024-03-02T10:43:17;99483.22;;;17.08;100.00
37238;BME280;23129;49.662;8.448;2024-03-02T10:45:49;99486.06;;;17.18;100.00
37238;BME280;23129;49.662;8.448;2024-03-02T10:48:19;99479.56;;;17.22;100.00
37238;BME280;23129;49.662;8.448;2024-03-02T10:50:50;99479.78;;;17.32;100.00
37238;BME280;23129;49.662;8.448;2024-03-02T10:53:20;99468.19;;;17.83;100.00
37238;BME280;23129;49.662;8.448;2024-03-02T10:55:51;99454.41;;;18.48;100.00
37238;BME280;23129;49.662;8.448;2024-03-02T10:58:33;99453.25;;;18.52;100.00
37238;BME280;23129;49.662;8.448;2024-03-02T11:01:03;99459.44;;;18.29;100.00
37238;BME280;23129;49.662;8.448;2024-03-02T11:03:35;99454.97;;;17.94;100.00
37238;BME280;23129;49.662;8.448;2024-03-02T11:06:08;99458.44;;;17.70;100.00
37238;BME280;23129;49.662;8.448;2024-03-02T11:08:39;99454.47;;;17.52;100.00
37238;BME280;23129;49.662;8.448;2024-03-02T11:11:14;99459.31;;;17.34;100.00
37238;BME280;23129;49.662;8.448;2024-03-02T11:13:49;99457.13;;;17.15;100.00
37238;BME280;23129;49.662;8.448;2024-03-02T11:16:24;99455.78;;;16.97;93.67
37238;BME280;23129;49.662;8.448;2024-03-02T11:18:57;99458.66;;;16.94;100.00
37238;BME280;23129;49.662;8.448;2024-03-02T11:21:29;99452.13;;;17.23;100.00
37238;BME280;23129;49.662;8.448;2024-03-02T11:24:00;99447.13;;;17.68;100.00
37238;BME280;23129;49.662;8.448;2024-03-02T11:26:38;99448.25;;;18.01;79.48
37238;BME280;23129;49.662;8.448;2024-03-02T11:29:08;99440.59;;;18.20;84.39
37238;BME280;23129;49.662;8.448;2024-03-02T11:31:58;99434.41;;;18.55;86.83
37238;BME280;23129;49.662;8.448;2024-03-02T11:34:31;99439.06;;;18.98;86.48
37238;BME280;23129;49.662;8.448;2024-03-02T11:37:03;99434.69;;;19.31;86.71
37238;BME280;23129;49.662;8.448;2024-03-02T11:39:32;99425.09;;;19.51;85.78
37238;BME280;23129;49.662;8.448;2024-03-02T11:42:03;99421.28;;;19.76;83.98
37238;BME280;23129;49.662;8.448;2024-03-02T11:44:33;99421.09;;;20.21;80.92
37238;BME280;23129;49.662;8.448;2024-03-02T11:47:05;99401.34;;;20.44;66.54
37238;BME280;23129;49.662;8.448;2024-03-02T11:49:38;99399.63;;;20.85;66.52
37238;BME280;23129;49.662;8.448;2024-03-02T11:52:10;99395.22;;;21.15;69.39
37238;BME280;23129;49.662;8.448;2024-03-02T11:54:41;99389.13;;;21.43;71.99
37238;BME280;23129;49.662;8.448;2024-03-02T11:57:15;99385.78;;;21.80;69.51
37238;BME280;23129;49.662;8.448;2024-03-02T11:59:44;99387.44;;;22.01;70.00
37238;BME280;23129;49.662;8.448;2024-03-02T12:02:15;99391.38;;;22.16;70.54
37238;BME280;23129;49.662;8.448;2024-03-02T12:04:47;99381.28;;;22.29;68.53
37238;BME280;23129;49.662;8.448;2024-03-02T12:07:20;99376.78;;;22.20;59.60
37238;BME280;23129;49.662;8.448;2024-03-02T12:09:58;99375.09;;;22.29;54.94
37238;BME280;23129;49.662;8.448;2024-03-02T12:12:27;99371.41;;;22.10;50.42
37238;BME280;23129;49.662;8.448;2024-03-02T12:14:56;99360.19;;;22.07;46.82
37238;BME280;23129;49.662;8.448;2024-03-02T12:17:29;99370.59;;;21.91;46.41
37238;BME280;23129;49.662;8.448;2024-03-02T12:19:58;99365.28;;;21.81;45.13
37238;BME280;23129;49.662;8.448;2024-03-02T12:22:32;99369.75;;;21.80;45.91
37238;BME280;23129;49.662;8.448;2024-03-02T12:25:01;99359.66;;;21.74;46.91
37238;BME280;23129;49.662;8.448;2024-03-02T12:27:30;99358.09;;;21.72;47.36
37238;BME280;23129;49.662;8.448;2024-03-02T12:29:59;99364.59;;;21.69;47.43
37238;BME280;23129;49.662;8.448;2024-03-02T12:32:28;99361.31;;;21.36;45.43
37238;BME280;23129;49.662;8.448;2024-03-02T12:34:57;99345.03;;;21.39;47.81
37238;BME280;23129;49.662;8.448;2024-03-02T12:37:25;99344.34;;;21.76;45.40
37238;BME280;23129;49.662;8.448;2024-03-02T12:39:56;99347.00;;;21.76;44.84
37238;BME280;23129;49.662;8.448;2024-03-02T12:42:26;99350.81;;;21.64;44.25
37238;BME280;23129;49.662;8.448;2024-03-02T12:44:54;99351.59;;;21.35;44.61
37238;BME280;23129;49.662;8.448;2024-03-02T12:47:23;99333.44;;;21.00;44.51
37238;BME280;23129;49.662;8.448;2024-03-02T12:49:52;99343.97;;;20.61;45.95
37238;BME280;23129;49.662;8.448;2024-03-02T12:52:23;99332.34;;;20.41;46.08
37238;BME280;23129;49.662;8.448;2024-03-02T12:54:52;99331.69;;;20.28;46.89
37238;BME280;23129;49.662;8.448;2024-03-02T12:57:30;99325.06;;;20.43;45.35
37238;BME280;23129;49.662;8.448;2024-03-02T12:59:59;99328.34;;;20.87;43.81
37238;BME280;23129;49.662;8.448;2024-03-02T13:02:28;99323.41;;;21.42;45.04
37238;BME280;23129;49.662;8.448;2024-03-02T13:04:58;99321.03;;;21.78;45.49
37238;BME280;23129;49.662;8.448;2024-03-02T13:07:27;99318.38;;;22.45;46.04
37238;BME280;23129;49.662;8.448;2024-03-02T13:09:56;99316.22;;;22.86;45.30
37238;BME280;23129;49.662;8.448;2024-03-02T13:12:25;99309.88;;;22.87;43.47
37238;BME280;23129;49.662;8.448;2024-03-02T13:14:55;99310.94;;;22.94;42.99